createdAt,value
2019-02-07T00:01:29.783Z,5.22
2019-02-07T00:03:58.635Z,5.64
2019-02-07T00:06:27.785Z,5.78
2019-02-07T00:08:58.267Z,5.05
2019-02-07T00:11:27.343Z,4.70
2019-02-07T00:13:56.953Z,4.95
2019-02-07T00:16:26.341Z,4.38
2019-02-07T00:19:02.469Z,4.25
2019-02-07T00:21:33.911Z,4.36
2019-02-07T00:24:06.022Z,4.36
2019-02-07T00:26:35.307Z,3.94
2019-02-07T00:29:06.084Z,3.35
2019-02-07T00:31:35.371Z,3.60
2019-02-07T00:34:04.967Z,3.64
2019-02-07T00:36:36.424Z,3.80
2019-02-07T00:39:07.967Z,3.45
2019-02-07T00:41:40.648Z,4.19
2019-02-07T00:44:09.745Z,4.39
2019-02-07T00:46:38.918Z,4.75
2019-02-07T00:49:10.051Z,4.66
2019-02-07T00:51:39.138Z,4.06
2019-02-07T00:54:09.571Z,3.56
2019-02-07T00:56:41.873Z,3.63
2019-02-07T00:59:11.049Z,3.83
2019-02-07T01:01:40.182Z,-4.86
2019-02-07T01:04:11.207Z,4.25
2019-02-07T01:06:46.491Z,4.10
2019-02-07T01:09:11.723Z,3.88
2019-02-07T01:11:41.132Z,3.83
2019-02-07T01:14:13.049Z,3.73
2019-02-07T01:16:42.565Z,3.35
2019-02-07T01:19:11.985Z,3.37
2019-02-07T01:21:41.095Z,3.73
2019-02-07T01:24:12.690Z,3.00
2019-02-07T01:26:41.780Z,3.56
2019-02-07T01:29:12.513Z,3.89
2019-02-07T01:31:46.844Z,3.43
2019-02-07T01:34:18.957Z,3.00
2019-02-07T01:36:48.073Z,2.70
2019-02-07T01:39:17.486Z,2.58
2019-02-07T01:41:50.492Z,2.80
2019-02-07T01:44:24.583Z,3.15
2019-02-07T01:46:55.178Z,3.07
2019-02-07T01:49:24.657Z,3.61
2019-02-07T01:51:55.237Z,3.32
2019-02-07T01:54:24.655Z,3.70
2019-02-07T01:56:54.844Z,4.33
2019-02-07T01:59:28.443Z,4.22
2019-02-07T02:02:01.534Z,3.84
2019-02-07T02:04:30.745Z,3.88
2019-02-07T02:06:59.848Z,3.48
2019-02-07T02:09:29.051Z,3.11
2019-02-07T02:11:59.311Z,3.02
2019-02-07T02:14:49.315Z,2.63
2019-02-07T02:17:24.509Z,2.42
2019-02-07T02:19:53.556Z,2.48
2019-02-07T02:22:24.599Z,2.60
2019-02-07T02:24:56.526Z,2.85
2019-02-07T02:27:26.102Z,3.14
2019-02-07T02:29:55.345Z,3.00
2019-02-07T02:32:24.720Z,3.39
2019-02-07T02:34:53.852Z,3.86
2019-02-07T02:37:24.080Z,3.81
2019-02-07T02:39:53.368Z,4.03
2019-02-07T02:42:22.745Z,4.28
2019-02-07T02:44:55.326Z,4.75
2019-02-07T02:47:22.874Z,4.73
2019-02-07T02:49:54.494Z,5.07
2019-02-07T02:52:30.829Z,5.23
2019-02-07T02:55:01.492Z,5.27
2019-02-07T02:57:33.409Z,4.64
2019-02-07T03:00:04.135Z,3.16
2019-02-07T03:03:01.259Z,3.53
2019-02-07T03:05:49.326Z,3.29
2019-02-07T03:08:41.237Z,4.42
2019-02-07T03:11:32.317Z,5.14
2019-02-07T03:14:26.399Z,4.83
2019-02-07T03:17:18.619Z,5.51
2019-02-07T03:20:05.424Z,5.40
2019-02-07T03:23:01.591Z,4.41
2019-02-07T03:25:58.860Z,4.36
2019-02-07T03:29:02.340Z,4.46
2019-02-07T03:32:01.427Z,3.97
2019-02-07T03:35:01.900Z,4.74
2019-02-07T03:37:53.318Z,4.07
2019-02-07T03:40:47.878Z,4.33
2019-02-07T03:43:46.800Z,3.53
2019-02-07T03:46:38.344Z,3.94
2019-02-07T03:49:19.919Z,3.38
2019-02-07T03:52:00.342Z,3.89
2019-02-07T03:54:47.780Z,3.94
2019-02-07T03:57:44.343Z,3.80
2019-02-07T04:00:23.721Z,3.90
2019-02-07T04:03:16.064Z,3.80
2019-02-07T04:06:24.107Z,3.90
2019-02-07T04:09:14.738Z,3.78
2019-02-07T04:12:03.327Z,3.47
2019-02-07T04:14:52.905Z,3.02
2019-02-07T04:17:47.332Z,3.23
2019-02-07T04:20:32.078Z,2.92
2019-02-07T04:23:07.299Z,3.46
2019-02-07T04:26:17.279Z,2.98
2019-02-07T04:29:15.828Z,3.79
2019-02-07T04:32:06.355Z,3.82
2019-02-07T04:34:48.954Z,3.31
2019-02-07T04:37:25.071Z,3.90
2019-02-07T04:40:14.802Z,3.73
2019-02-07T04:43:06.159Z,4.06
2019-02-07T04:45:56.153Z,3.71
2019-02-07T04:48:42.054Z,3.98
2019-02-07T04:51:28.726Z,3.55
2019-02-07T04:54:28.884Z,3.14
2019-02-07T04:57:13.132Z,2.96
2019-02-07T05:00:19.818Z,2.66
2019-02-07T05:03:08.814Z,2.92
2019-02-07T05:05:55.801Z,-6.79
2019-02-07T05:08:31.324Z,4.25
2019-02-07T05:11:18.397Z,3.48
2019-02-07T05:14:10.955Z,3.26
2019-02-07T05:17:00.820Z,2.81
2019-02-07T05:20:02.089Z,2.85
2019-02-07T05:23:02.709Z,2.58
2019-02-07T05:25:51.564Z,2.90
2019-02-07T05:28:47.839Z,3.26
2019-02-07T05:31:26.638Z,3.31
2019-02-07T05:34:26.541Z,3.34
2019-02-07T05:37:27.892Z,3.67
2019-02-07T05:40:22.526Z,2.99
2019-02-07T05:43:15.655Z,2.80
2019-02-07T05:46:11.334Z,2.82
2019-02-07T05:48:58.170Z,2.56
2019-02-07T05:51:41.193Z,2.44
2019-02-07T05:54:41.490Z,2.44
2019-02-07T05:57:21.146Z,3.06
2019-02-07T06:00:09.966Z,2.87
2019-02-07T06:02:52.200Z,3.17
2019-02-07T06:05:51.261Z,2.70
2019-02-07T06:08:37.497Z,2.84
2019-02-07T06:11:41.328Z,2.86
2019-02-07T06:14:33.790Z,3.26
2019-02-07T06:17:25.231Z,2.94
2019-02-07T06:20:25.306Z,2.58
2019-02-07T06:23:11.516Z,2.63
2019-02-07T06:25:51.371Z,2.64
2019-02-07T06:28:47.516Z,2.90
2019-02-07T06:31:38.182Z,2.78
2019-02-07T06:34:38.463Z,2.88
2019-02-07T06:37:41.808Z,2.51
2019-02-07T06:40:44.184Z,2.53
2019-02-07T06:43:32.315Z,2.52
2019-02-07T06:46:38.644Z,2.64
2019-02-07T06:49:25.572Z,2.32
2019-02-07T06:52:19.540Z,2.05
2019-02-07T06:55:12.389Z,2.19
2019-02-07T06:58:03.375Z,1.93
2019-02-07T07:01:01.103Z,2.27
2019-02-07T07:03:52.543Z,2.20
2019-02-07T07:06:46.239Z,2.33
2019-02-07T07:09:40.870Z,2.57
2019-02-07T07:12:34.963Z,2.51
2019-02-07T07:15:22.290Z,2.82
2019-02-07T07:18:11.458Z,2.51
2019-02-07T07:21:03.106Z,2.54
2019-02-07T07:23:54.521Z,2.59
2019-02-07T07:26:43.020Z,2.40
2019-02-07T07:29:20.085Z,2.84
2019-02-07T07:32:08.445Z,2.72
2019-02-07T07:35:05.116Z,2.71
2019-02-07T07:37:48.417Z,2.81
2019-02-07T07:40:41.452Z,2.78
2019-02-07T07:43:30.499Z,2.81
2019-02-07T07:46:19.342Z,2.92
2019-02-07T07:49:19.747Z,2.95
2019-02-07T07:52:04.313Z,3.06
2019-02-07T07:55:02.946Z,3.50
2019-02-07T07:58:04.707Z,3.16
2019-02-07T08:01:05.050Z,3.13
2019-02-07T08:04:02.160Z,3.19
2019-02-07T08:10:12.056Z,3.73
2019-02-07T08:12:50.476Z,3.63
2019-02-07T08:15:31.532Z,3.73
2019-02-07T08:18:27.109Z,3.67
2019-02-07T08:21:26.796Z,3.62
2019-02-07T08:24:11.824Z,3.77
2019-02-07T08:27:01.214Z,3.58
2019-02-07T08:29:52.511Z,3.78
2019-02-07T08:32:43.034Z,3.77
2019-02-07T08:35:31.271Z,1.30
2019-02-07T08:38:23.540Z,4.00
2019-02-07T08:41:13.292Z,3.92
2019-02-07T08:44:20.324Z,3.81
2019-02-07T08:46:59.437Z,3.99
2019-02-07T08:49:52.357Z,3.88
2019-02-07T08:52:43.672Z,4.19
2019-02-07T08:55:35.963Z,4.02
2019-02-07T08:58:23.361Z,4.23
2019-02-07T09:01:14.467Z,4.37
2019-02-07T09:04:14.347Z,4.23
2019-02-07T09:07:01.597Z,4.40
2019-02-07T09:09:40.006Z,4.37
2019-02-07T09:12:26.876Z,4.41
2019-02-07T09:15:15.005Z,4.48
2019-02-07T09:18:10.029Z,4.75
2019-02-07T09:21:08.746Z,4.75
2019-02-07T09:24:00.137Z,5.07
2019-02-07T09:26:59.783Z,5.38
2019-02-07T09:29:50.425Z,5.15
2019-02-07T09:32:37.299Z,5.42
2019-02-07T09:35:24.887Z,5.31
2019-02-07T09:38:25.735Z,5.20
2019-02-07T09:41:13.738Z,5.09
2019-02-07T09:44:14.227Z,5.05
2019-02-07T09:47:26.777Z,5.27
2019-02-07T09:50:29.868Z,5.29
2019-02-07T09:53:24.013Z,5.50
2019-02-07T09:56:01.283Z,5.31
2019-02-07T09:58:51.319Z,5.38
2019-02-07T10:01:59.247Z,5.17
2019-02-07T10:04:52.352Z,5.27
2019-02-07T10:07:34.889Z,5.21
2019-02-07T10:10:28.685Z,5.40
2019-02-07T10:17:02.835Z,5.50
2019-02-07T10:19:55.731Z,5.62
2019-02-07T10:22:35.876Z,5.71
2019-02-07T10:25:45.841Z,5.57
2019-02-07T10:28:32.934Z,5.53
2019-02-07T10:31:15.455Z,5.58
2019-02-07T10:34:02.794Z,5.73
2019-02-07T10:36:48.758Z,5.80
2019-02-07T10:39:37.457Z,6.26
2019-02-07T10:42:28.464Z,5.94
2019-02-07T10:45:32.204Z,5.51
2019-02-07T10:48:26.248Z,5.90
2019-02-07T10:51:15.976Z,5.74
2019-02-07T10:53:57.725Z,5.67
2019-02-07T10:56:38.259Z,5.56
2019-02-07T10:59:32.192Z,5.67
2019-02-07T11:02:18.345Z,5.84
2019-02-07T11:05:05.789Z,5.96
2019-02-07T11:07:54.044Z,5.82
2019-02-07T11:10:46.513Z,5.88
2019-02-07T11:13:43.719Z,5.98
2019-02-07T11:16:35.935Z,5.92
2019-02-07T11:19:23.691Z,6.24
2019-02-07T11:22:18.540Z,5.82
2019-02-07T11:25:05.291Z,6.01
2019-02-07T11:28:10.919Z,6.04
2019-02-07T11:30:58.398Z,6.36
2019-02-07T11:33:39.909Z,6.46
2019-02-07T11:36:33.854Z,6.08
2019-02-07T11:39:29.657Z,6.06
2019-02-07T11:42:19.815Z,6.21
2019-02-07T11:45:09.376Z,6.61
2019-02-07T11:48:01.643Z,6.78
2019-02-07T11:50:51.914Z,6.77
2019-02-07T11:53:30.021Z,6.37
2019-02-07T11:56:19.905Z,6.41
2019-02-07T11:59:22.273Z,6.90
2019-02-07T12:02:19.731Z,6.77
2019-02-07T12:05:08.374Z,6.90
2019-02-07T12:07:59.509Z,6.91
2019-02-07T12:10:47.666Z,7.10
2019-02-07T12:13:35.369Z,7.13
2019-02-07T12:16:40.632Z,7.07
2019-02-07T12:19:37.835Z,7.17
2019-02-07T12:22:27.547Z,7.33
2019-02-07T12:25:19.815Z,7.18
2019-02-07T12:28:23.261Z,7.27
2019-02-07T12:31:10.958Z,3.70
2019-02-07T12:34:02.154Z,7.94
2019-02-07T12:36:43.661Z,8.13
2019-02-07T12:39:31.484Z,8.09
2019-02-07T12:42:27.370Z,8.52
2019-02-07T12:45:37.856Z,8.20
2019-02-07T12:48:28.055Z,8.34
2019-02-07T12:51:16.586Z,8.10
2019-02-07T12:54:16.711Z,8.49
2019-02-07T12:57:13.027Z,8.64
2019-02-07T13:00:16.543Z,8.89
2019-02-07T13:03:19.934Z,9.36
2019-02-07T13:06:08.280Z,9.22
2019-02-07T13:08:46.300Z,10.03
2019-02-07T13:11:47.408Z,9.41
2019-02-07T13:14:45.641Z,10.20
2019-02-07T13:17:39.602Z,10.39
2019-02-07T13:20:30.216Z,10.46
2019-02-07T13:23:36.807Z,9.64
2019-02-07T13:26:25.273Z,9.59
2019-02-07T13:29:26.154Z,9.57
2019-02-07T13:32:31.692Z,10.73
2019-02-07T13:35:18.170Z,10.45
2019-02-07T13:38:04.687Z,9.71
2019-02-07T13:40:48.496Z,9.37
2019-02-07T13:43:45.876Z,9.04
2019-02-07T13:46:39.900Z,9.13
2019-02-07T13:49:26.587Z,9.08
2019-02-07T13:52:22.870Z,9.27
2019-02-07T13:55:11.241Z,9.09
2019-02-07T13:57:57.987Z,9.34
2019-02-07T14:00:47.318Z,9.47
2019-02-07T14:03:34.284Z,9.35
2019-02-07T14:06:31.254Z,9.34
2019-02-07T14:09:23.101Z,9.61
2019-02-07T14:12:11.886Z,10.04
2019-02-07T14:14:52.970Z,10.52
2019-02-07T14:17:42.766Z,10.10
2019-02-07T14:20:30.118Z,9.87
2019-02-07T14:23:18.791Z,9.62
2019-02-07T14:25:56.718Z,9.35
2019-02-07T14:28:54.676Z,9.64
2019-02-07T14:31:42.389Z,9.37
2019-02-07T14:34:33.948Z,9.19
2019-02-07T14:37:19.874Z,9.20
2019-02-07T14:40:20.941Z,8.95
2019-02-07T14:43:01.731Z,8.76
2019-02-07T14:46:02.429Z,9.25
2019-02-07T14:48:34.824Z,9.18
2019-02-07T14:51:05.413Z,8.94
2019-02-07T14:53:39.263Z,8.67
2019-02-07T14:56:13.964Z,8.86
2019-02-07T14:58:42.902Z,9.30
2019-02-07T15:01:12.120Z,9.28
2019-02-07T15:03:41.703Z,9.02
2019-02-07T15:06:14.091Z,9.16
2019-02-07T15:08:43.600Z,9.36
2019-02-07T15:11:13.109Z,9.47
2019-02-07T15:13:42.319Z,9.13
2019-02-07T15:16:12.388Z,9.09
2019-02-07T15:18:41.639Z,9.09
2019-02-07T15:21:11.903Z,8.89
2019-02-07T15:23:44.421Z,9.01
2019-02-07T15:26:14.854Z,8.98
2019-02-07T15:28:44.541Z,8.89
2019-02-07T15:31:13.736Z,8.93
2019-02-07T15:33:42.921Z,9.30
2019-02-07T15:36:15.023Z,9.15
2019-02-07T15:38:44.284Z,9.12
2019-02-07T15:41:13.437Z,9.33
2019-02-07T15:43:48.073Z,9.27
2019-02-07T15:46:17.318Z,9.52
2019-02-07T15:48:47.283Z,9.13
2019-02-07T15:51:22.143Z,8.98
2019-02-07T15:53:51.321Z,8.90
2019-02-07T15:56:24.919Z,8.86
2019-02-07T15:59:18.310Z,8.69
2019-02-07T16:01:58.979Z,8.64
2019-02-07T16:04:35.829Z,9.06
2019-02-07T16:07:08.555Z,8.95
2019-02-07T16:09:38.503Z,8.78
2019-02-07T16:12:07.715Z,8.75
2019-02-07T16:14:37.067Z,0.32
2019-02-07T16:17:06.234Z,8.93
2019-02-07T16:19:35.606Z,9.09
2019-02-07T16:22:08.533Z,9.23
2019-02-07T16:24:38.071Z,9.17
2019-02-07T16:27:08.641Z,9.03
2019-02-07T16:29:41.238Z,9.57
2019-02-07T16:32:11.645Z,9.27
2019-02-07T16:34:40.774Z,8.87
2019-02-07T16:37:14.635Z,9.13
2019-02-07T16:39:45.365Z,9.17
2019-02-07T16:42:15.506Z,8.88
2019-02-07T16:44:44.634Z,8.98
2019-02-07T16:47:13.754Z,8.57
2019-02-07T16:49:42.920Z,8.83
2019-02-07T16:52:12.226Z,8.47
2019-02-07T16:54:41.824Z,8.87
2019-02-07T16:57:12.346Z,8.86
2019-02-07T16:59:42.619Z,8.95
2019-02-07T17:02:22.392Z,8.62
2019-02-07T17:04:54.357Z,9.12
2019-02-07T17:07:24.618Z,9.76
2019-02-07T17:09:54.210Z,9.22
2019-02-07T17:12:23.766Z,9.56
2019-02-07T17:14:59.230Z,9.32
2019-02-07T17:17:29.373Z,9.18
2019-02-07T17:19:58.964Z,9.07
2019-02-07T17:22:29.896Z,8.68
2019-02-07T17:25:01.312Z,8.30
2019-02-07T17:27:30.569Z,8.40
2019-02-07T17:29:59.733Z,8.41
2019-02-07T17:32:30.721Z,8.27
2019-02-07T17:34:59.844Z,8.07
2019-02-07T17:37:30.815Z,8.07
2019-02-07T17:40:01.347Z,7.92
2019-02-07T17:42:30.963Z,7.92
2019-02-07T17:45:00.555Z,7.89
2019-02-07T17:47:36.815Z,7.79
2019-02-07T17:50:15.617Z,7.72
2019-02-07T17:52:45.969Z,7.84
2019-02-07T17:55:18.777Z,7.67
2019-02-07T17:57:52.576Z,7.33
2019-02-07T18:00:31.809Z,7.55
2019-02-07T18:03:02.218Z,7.38
2019-02-07T18:05:34.793Z,7.48
2019-02-07T18:08:07.504Z,7.59
2019-02-07T18:10:36.697Z,7.26
2019-02-07T18:13:09.090Z,7.03
2019-02-07T18:15:42.869Z,7.03
2019-02-07T18:18:12.131Z,7.13
2019-02-07T18:20:43.934Z,7.25
2019-02-07T18:23:14.474Z,7.08
2019-02-07T18:25:43.792Z,7.10
2019-02-07T18:28:17.430Z,7.16
2019-02-07T18:30:47.571Z,7.13
2019-02-07T18:33:16.733Z,7.21
2019-02-07T18:35:50.678Z,7.35
2019-02-07T18:38:19.818Z,7.19
2019-02-07T18:40:49.064Z,7.28
2019-02-07T18:43:18.462Z,6.96
2019-02-07T18:45:47.636Z,6.87
2019-02-07T18:48:20.651Z,6.78
2019-02-07T18:50:50.746Z,6.81
2019-02-07T18:53:19.969Z,6.71
2019-02-07T18:55:49.135Z,6.48
2019-02-07T18:58:27.211Z,6.86
2019-02-07T19:00:57.432Z,6.41
2019-02-07T19:03:29.314Z,6.51
2019-02-07T19:05:59.472Z,6.51
2019-02-07T19:08:28.653Z,6.40
2019-02-07T19:11:06.242Z,6.52
2019-02-07T19:13:36.512Z,6.58
2019-02-07T19:16:14.346Z,6.84
2019-02-07T19:18:44.248Z,6.66
2019-02-07T19:21:15.657Z,7.22
2019-02-07T19:23:44.478Z,7.24
2019-02-07T19:26:14.945Z,7.24
2019-02-07T19:28:45.610Z,7.99
2019-02-07T19:31:17.060Z,7.94
2019-02-07T19:33:48.168Z,8.21
2019-02-07T19:36:17.835Z,7.77
2019-02-07T19:38:48.156Z,7.90
2019-02-07T19:41:17.397Z,8.05
2019-02-07T19:43:51.151Z,8.10
2019-02-07T19:46:20.092Z,8.33
2019-02-07T19:48:51.338Z,8.26
2019-02-07T19:51:23.199Z,8.54
2019-02-07T19:53:52.342Z,8.54
2019-02-07T19:56:21.580Z,8.42
2019-02-07T19:58:54.128Z,8.87
2019-02-07T20:01:23.675Z,8.73
2019-02-07T20:03:54.465Z,8.74
2019-02-07T20:06:23.615Z,9.03
2019-02-07T20:08:52.757Z,8.42
2019-02-07T20:11:24.054Z,7.93
2019-02-07T20:13:55.925Z,6.05
2019-02-07T20:16:27.413Z,8.41
2019-02-07T20:18:57.277Z,7.96
2019-02-07T20:21:26.861Z,7.86
2019-02-07T20:23:56.301Z,7.78
2019-02-07T20:26:25.484Z,7.55
2019-02-07T20:28:56.382Z,7.78
2019-02-07T20:31:26.338Z,8.24
2019-02-07T20:33:55.447Z,7.79
2019-02-07T20:36:24.602Z,7.60
2019-02-07T20:38:54.880Z,8.00
2019-02-07T20:41:29.341Z,7.61
2019-02-07T20:44:01.289Z,7.20
2019-02-07T20:46:31.018Z,6.79
2019-02-07T20:49:06.120Z,6.60
2019-02-07T20:51:37.643Z,6.60
2019-02-07T20:54:08.570Z,6.34
2019-02-07T20:56:37.792Z,6.32
2019-02-07T20:59:06.941Z,6.21
2019-02-07T21:01:37.640Z,6.15
2019-02-07T21:04:06.928Z,6.14
2019-02-07T21:06:38.062Z,5.94
2019-02-07T21:09:13.316Z,5.81
2019-02-07T21:11:42.667Z,-4.14
2019-02-07T21:14:14.367Z,5.87
2019-02-07T21:16:45.183Z,5.82
2019-02-07T21:19:14.411Z,5.87
2019-02-07T21:21:43.757Z,5.75
2019-02-07T21:24:14.901Z,5.77
2019-02-07T21:26:44.086Z,5.77
2019-02-07T21:29:14.269Z,5.73
2019-02-07T21:31:43.621Z,5.91
2019-02-07T21:34:12.782Z,5.83
2019-02-07T21:36:41.900Z,5.80
2019-02-07T21:39:11.852Z,5.84
2019-02-07T21:41:40.986Z,5.60
2019-02-07T21:44:10.185Z,5.62
2019-02-07T21:46:39.819Z,5.70
2019-02-07T21:49:12.010Z,5.58
2019-02-07T21:51:41.301Z,5.47
2019-02-07T21:54:13.801Z,5.70
2019-02-07T21:56:46.567Z,5.58
2019-02-07T21:59:15.686Z,5.91
2019-02-07T22:01:50.379Z,5.61
2019-02-07T22:04:19.514Z,5.61
2019-02-07T22:06:50.006Z,5.51
2019-02-07T22:09:20.721Z,5.71
2019-02-07T22:11:50.036Z,6.11
2019-02-07T22:14:21.581Z,5.61
2019-02-07T22:16:53.902Z,5.39
2019-02-07T22:19:23.104Z,5.76
2019-02-07T22:21:54.474Z,5.42
2019-02-07T22:24:25.017Z,5.56
2019-02-07T22:26:54.153Z,5.38
2019-02-07T22:29:23.319Z,5.46
2019-02-07T22:31:52.552Z,5.64
2019-02-07T22:34:23.031Z,5.46
2019-02-07T22:36:55.238Z,5.60
2019-02-07T22:39:25.831Z,5.50
2019-02-07T22:41:54.945Z,5.22
2019-02-07T22:44:26.613Z,5.27
2019-02-07T22:46:55.787Z,5.13
2019-02-07T22:49:24.956Z,4.96
2019-02-07T22:51:55.105Z,5.20
2019-02-07T22:54:27.839Z,5.20
2019-02-07T22:57:04.819Z,4.99
2019-02-07T22:59:34.058Z,4.93
2019-02-07T23:02:03.901Z,5.05
2019-02-07T23:04:35.239Z,4.94
2019-02-07T23:07:07.141Z,5.08
2019-02-07T23:09:36.882Z,5.37
2019-02-07T23:12:07.736Z,5.35
2019-02-07T23:14:42.309Z,5.39
2019-02-07T23:17:11.740Z,5.10
2019-02-07T23:19:44.398Z,5.31
2019-02-07T23:22:14.004Z,5.36
2019-02-07T23:24:45.762Z,5.57
2019-02-07T23:27:14.917Z,5.75
2019-02-07T23:29:44.728Z,5.81
2019-02-07T23:32:13.834Z,5.67
2019-02-07T23:34:43.017Z,5.72
2019-02-07T23:37:13.946Z,5.58
2019-02-07T23:39:45.091Z,5.47
2019-02-07T23:42:23.050Z,5.48
2019-02-07T23:44:52.528Z,5.37
2019-02-07T23:47:24.054Z,5.21
2019-02-07T23:49:57.723Z,5.21
2019-02-07T23:52:30.646Z,5.14
2019-02-07T23:54:59.811Z,5.35
2019-02-07T23:57:31.436Z,5.25
